This is the latest recevied weather packets stored in our database for station/object M0UPS-13. If no packets are shown the sender has not sent any weather packets the latest 1 day(s).
| Time | Temp. | Humidity | Pressure | Rain* | Wind** | Luminosity | Snow |
|---|---|---|---|---|---|---|---|
| 1778107202 | 10° C | 73% | 1015.4 hPa | 0 mm | - | 0 W/m² | - |
| 1778103603 | 10.56° C | 66% | 1015.2 hPa | 0 mm | - | 0 W/m² | - |
| 1778103303 | 11.11° C | 66% | 1015.2 hPa | 0 mm | - | 0 W/m² | - |
| 1778099103 | 11.67° C | 62% | 1014.7 hPa | 0 mm | - | 0 W/m² | - |
| 1778098803 | 11.67° C | 62% | 1014.9 hPa | 0 mm | - | 0 W/m² | - |
| 1778095203 | 12.22° C | 60% | 1014.1 hPa | 0 mm | - | 2 W/m² | - |
| 1778093103 | 12.78° C | 56% | 1013.9 hPa | 0 mm | - | 5 W/m² | - |
| 1778091902 | 12.78° C | 52% | 1013.7 hPa | 0 mm | - | 12 W/m² | - |
| 1778091003 | 12.78° C | 52% | 1013.5 hPa | 0 mm | - | 18 W/m² | - |
| 1778090702 | 12.78° C | 52% | 1013.6 hPa | 0 mm | - | 18 W/m² | - |
| 1778090102 | 12.78° C | 54% | 1013.4 hPa | 0 mm | - | 14 W/m² | - |
| 1778089803 | 12.78° C | 54% | 1013.5 hPa | 0 mm | - | 12 W/m² | - |
| 1778088902 | 12.78° C | 53% | 1013.3 hPa | 0 mm | - | 17 W/m² | - |
| 1778083802 | 13.89° C | 54% | 1013.2 hPa | 0 mm | - | 211 W/m² | - |
| 1778082903 | 13.89° C | 54% | 1013.4 hPa | 0 mm | - | 202 W/m² | - |
| 1778082003 | 13.33° C | 53% | 1013.5 hPa | 0 mm | - | 172 W/m² | - |
| 1778081703 | 13.33° C | 55% | 1013.5 hPa | 0 mm | - | 164 W/m² | - |
| 1778077202 | 13.89° C | 54% | 1013.4 hPa | 0 mm | - | 138 W/m² | - |
| 1778076903 | 14.44° C | 53% | 1013.3 hPa | 0 mm | - | 167 W/m² | - |
| 1778076603 | 15° C | 52% | 1013.4 hPa | 0 mm | - | 229 W/m² | - |
| 1778073603 | 13.89° C | 56% | 1013.3 hPa | 0 mm | - | 243 W/m² | - |
| 1778071202 | 15.56° C | 49% | 1013.3 hPa | 0 mm | - | 792 W/m² | - |
| 1778070903 | 15.56° C | 51% | 1013.4 hPa | 0 mm | - | 720 W/m² | - |
| 1778068803 | 15.56° C | 51% | 1013.4 hPa | 0 mm | - | 801 W/m² | - |
| 1778068503 | 15.56° C | 50% | 1013.5 hPa | 0 mm | - | 814 W/m² | - |
* Rain latest hour (hover to see other rain measurements)
** Current wind speed in m/s (hover to see current wind gust speed)